createdAt,value
2018-07-28T00:01:08.961Z,100851.19
2018-07-28T00:03:35.711Z,100854.81
2018-07-28T00:06:02.500Z,100846.18
2018-07-28T00:08:29.388Z,100842.91
2018-07-28T00:10:56.173Z,100842.48
2018-07-28T00:13:22.936Z,100841.59
2018-07-28T00:15:49.684Z,100843.05
2018-07-28T00:18:16.436Z,100832.77
2018-07-28T00:20:43.248Z,100832.17
2018-07-28T00:23:10.304Z,100830.16
2018-07-28T00:25:37.502Z,100827.63
2018-07-28T00:28:05.180Z,100832.66
2018-07-28T00:30:31.917Z,100830.73
2018-07-28T00:32:58.672Z,100831.67
2018-07-28T00:35:25.425Z,100824.61
2018-07-28T00:37:52.173Z,100811.42
2018-07-28T00:40:18.932Z,100807.92
2018-07-28T00:42:45.833Z,100800.77
2018-07-28T00:45:12.580Z,100805.53
2018-07-28T00:47:39.344Z,100801.71
2018-07-28T00:50:06.648Z,100799.69
2018-07-28T00:52:33.394Z,100794.84
2018-07-28T00:55:00.146Z,100789.41
2018-07-28T00:57:26.905Z,100780.19
2018-07-28T00:59:53.664Z,100782.27
2018-07-28T01:02:20.416Z,100779.93
2018-07-28T01:04:47.180Z,100771.30
2018-07-28T01:07:13.960Z,100765.95
2018-07-28T01:09:40.715Z,100770.92
2018-07-28T01:12:07.469Z,100763.84
2018-07-28T01:14:34.229Z,100762.92
2018-07-28T01:17:00.982Z,100755.64
2018-07-28T01:19:27.736Z,100749.31
2018-07-28T01:21:54.486Z,100751.27
2018-07-28T01:24:21.240Z,100749.05
2018-07-28T01:26:47.968Z,100741.96
2018-07-28T01:29:15.886Z,100745.14
2018-07-28T01:31:42.634Z,100747.82
2018-07-28T01:34:09.419Z,100741.27
2018-07-28T01:36:36.164Z,100742.52
2018-07-28T01:39:05.052Z,100743.96
2018-07-28T01:41:31.781Z,100738.23
2018-07-28T01:43:58.548Z,100743.18
2018-07-28T01:46:25.291Z,100747.70
2018-07-28T01:48:52.033Z,100738.98
2018-07-28T01:51:18.760Z,100732.72
2018-07-28T01:53:45.588Z,100731.61
2018-07-28T01:56:12.355Z,100724.33
2018-07-28T01:58:39.113Z,100724.02
2018-07-28T02:01:05.877Z,100718.16
2018-07-28T02:06:22.954Z,100712.72
2018-07-28T02:08:49.952Z,100702.99
2018-07-28T02:11:16.725Z,100697.23
2018-07-28T02:13:43.504Z,100683.98
2018-07-28T02:16:10.525Z,100683.89
2018-07-28T02:18:37.309Z,100687.80
2018-07-28T02:21:04.077Z,100685.84
2018-07-28T02:23:30.860Z,100691.72
2018-07-28T02:25:57.621Z,100688.04
2018-07-28T02:28:24.417Z,100683.43
2018-07-28T02:30:51.472Z,100685.47
2018-07-28T02:33:18.525Z,100686.20
2018-07-28T02:35:45.305Z,100684.36
2018-07-28T02:38:12.144Z,100681.17
2018-07-28T02:40:38.917Z,100672.56
2018-07-28T02:43:05.674Z,100664.55
2018-07-28T02:45:32.503Z,100666.07
2018-07-28T02:50:49.388Z,100659.25
2018-07-28T02:53:16.152Z,100655.66
2018-07-28T02:55:42.917Z,100650.83
2018-07-28T02:58:09.675Z,100652.16
2018-07-28T03:00:36.446Z,100641.48
2018-07-28T03:03:03.201Z,100634.70
2018-07-28T03:05:30.105Z,100639.45
2018-07-28T03:07:56.879Z,100634.02
2018-07-28T03:10:23.653Z,100636.91
2018-07-28T03:12:50.426Z,100639.26
2018-07-28T03:15:33.164Z,100630.14
2018-07-28T03:18:01.634Z,100628.39
2018-07-28T03:20:28.601Z,100628.61
2018-07-28T03:22:55.348Z,100634.47
2018-07-28T03:25:22.264Z,100635.48
2018-07-28T03:27:49.048Z,100638.69
2018-07-28T03:30:16.174Z,100635.29
2018-07-28T03:32:42.956Z,100630.68
2018-07-28T03:35:09.896Z,100637.95
2018-07-28T03:37:36.662Z,100629.34
2018-07-28T03:40:03.805Z,100631.19
2018-07-28T03:42:30.672Z,100628.23
2018-07-28T03:44:57.442Z,100626.90
2018-07-28T03:47:24.183Z,100619.08
2018-07-28T03:49:50.941Z,100620.42
2018-07-28T03:52:17.757Z,100618.48
2018-07-28T03:54:44.584Z,100616.95
2018-07-28T03:57:11.337Z,100613.65
2018-07-28T03:59:38.174Z,100618.19
2018-07-28T04:02:04.927Z,100603.20
2018-07-28T04:04:31.676Z,100592.74
2018-07-28T04:06:58.408Z,100594.45
2018-07-28T04:09:25.177Z,100595.80
2018-07-28T04:11:51.940Z,100598.27
2018-07-28T04:14:18.726Z,100587.59
2018-07-28T04:16:45.492Z,100587.09
2018-07-28T04:19:12.249Z,100586.86
2018-07-28T04:24:29.657Z,100576.06
2018-07-28T04:26:56.397Z,100584.51
2018-07-28T04:29:23.173Z,100575.77
2018-07-28T04:31:49.860Z,100572.08
2018-07-28T04:34:16.604Z,100578.75
2018-07-28T04:36:43.325Z,100567.56
2018-07-28T04:39:11.756Z,100567.56
2018-07-28T04:41:38.664Z,100564.67
2018-07-28T04:44:05.427Z,100562.92
2018-07-28T04:46:32.196Z,100561.08
2018-07-28T04:48:58.924Z,100565.46
2018-07-28T04:51:25.658Z,100562.79
2018-07-28T04:53:52.393Z,100558.79
2018-07-28T04:56:19.140Z,100555.37
2018-07-28T04:58:45.868Z,100562.15
2018-07-28T05:01:12.620Z,100554.77
2018-07-28T05:03:39.374Z,100550.86
2018-07-28T05:06:06.792Z,100556.06
2018-07-28T05:08:33.666Z,100541.97
2018-07-28T05:11:00.460Z,100549.88
2018-07-28T05:13:27.212Z,100546.76
2018-07-28T05:15:54.003Z,100543.75
2018-07-28T05:18:20.697Z,100543.61
2018-07-28T05:20:47.469Z,100546.38
2018-07-28T05:23:14.220Z,100534.75
2018-07-28T05:25:40.957Z,100526.59
2018-07-28T05:28:07.695Z,100529.90
2018-07-28T05:30:34.500Z,100528.42
2018-07-28T05:33:01.238Z,100519.23
2018-07-28T05:35:28.046Z,100528.81
2018-07-28T05:37:54.831Z,100523.84
2018-07-28T05:40:21.577Z,100512.84
2018-07-28T05:42:48.401Z,100519.09
2018-07-28T05:45:15.160Z,100523.38
2018-07-28T05:47:41.894Z,100521.47
2018-07-28T05:50:09.169Z,100509.61
2018-07-28T05:52:35.897Z,100510.31
2018-07-28T05:55:02.701Z,100516.41
2018-07-28T05:57:29.446Z,100514.93
2018-07-28T05:59:56.204Z,100516.94
2018-07-28T06:02:23.066Z,100509.98
2018-07-28T06:04:49.729Z,100502.70
2018-07-28T06:07:16.489Z,100501.24
2018-07-28T06:09:43.260Z,100493.38
2018-07-28T06:12:10.034Z,100494.86
2018-07-28T06:14:36.852Z,100495.84
2018-07-28T06:17:03.909Z,100490.36
2018-07-28T06:19:30.736Z,100493.38
2018-07-28T06:21:57.510Z,100486.26
2018-07-28T06:24:24.228Z,100492.50
2018-07-28T06:26:50.981Z,100491.75
2018-07-28T06:29:17.822Z,100485.28
2018-07-28T06:31:44.625Z,100481.48
2018-07-28T06:34:11.329Z,100483.86
2018-07-28T06:36:38.141Z,100492.55
2018-07-28T06:39:08.194Z,100485.48
2018-07-28T06:41:34.996Z,100486.45
2018-07-28T06:44:01.745Z,100487.23
2018-07-28T06:46:28.517Z,100486.79
2018-07-28T06:48:55.276Z,100488.53
2018-07-28T06:51:22.061Z,100492.37
2018-07-28T06:53:49.056Z,100495.48
2018-07-28T06:56:15.806Z,100490.84
2018-07-28T06:58:42.709Z,100489.75
2018-07-28T07:01:09.596Z,100486.16
2018-07-28T07:03:36.332Z,100485.80
2018-07-28T07:06:03.929Z,100489.88
2018-07-28T07:08:30.648Z,100489.33
2018-07-28T07:10:57.412Z,100489.41
2018-07-28T07:13:24.173Z,100490.22
2018-07-28T07:18:42.353Z,100483.55
2018-07-28T07:21:09.180Z,100481.58
2018-07-28T07:23:35.956Z,100471.58
2018-07-28T07:26:02.729Z,100468.75
2018-07-28T07:28:29.473Z,100467.45
2018-07-28T07:30:56.294Z,100461.36
2018-07-28T07:33:23.054Z,100459.95
2018-07-28T07:35:49.832Z,100458.19
2018-07-28T07:38:16.564Z,100448.33
2018-07-28T07:40:43.416Z,100436.94
2018-07-28T07:43:10.200Z,100439.72
2018-07-28T07:45:37.192Z,100434.78
2018-07-28T07:48:04.001Z,100438.91
2018-07-28T07:50:31.078Z,100432.84
2018-07-28T07:52:57.816Z,100433.49
2018-07-28T07:55:24.910Z,100431.80
2018-07-28T07:57:51.692Z,100431.14
2018-07-28T08:00:18.462Z,100423.49
2018-07-28T08:02:45.249Z,100420.06
2018-07-28T08:05:12.025Z,100416.14
2018-07-28T08:07:38.782Z,100411.95
2018-07-28T08:10:05.873Z,100417.78
2018-07-28T08:12:32.695Z,100420.32
2018-07-28T08:14:59.725Z,100424.98
2018-07-28T08:17:26.469Z,100423.02
2018-07-28T08:19:53.218Z,100409.34
2018-07-28T08:22:19.972Z,100407.63
2018-07-28T08:24:46.692Z,100415.86
2018-07-28T08:27:13.429Z,100405.91
2018-07-28T08:29:40.156Z,100421.92
2018-07-28T08:32:06.897Z,100421.48
2018-07-28T08:34:33.633Z,100428.09
2018-07-28T08:37:00.366Z,100425.61
2018-07-28T08:39:27.110Z,100414.50
2018-07-28T08:41:53.865Z,100415.69
2018-07-28T08:44:20.581Z,100413.59
2018-07-28T08:46:47.313Z,100415.34
2018-07-28T08:49:14.089Z,100416.83
2018-07-28T08:51:40.837Z,100419.87
2018-07-28T08:54:07.578Z,100418.08
2018-07-28T08:56:34.341Z,100421.66
2018-07-28T08:59:01.097Z,100416.61
2018-07-28T09:01:27.832Z,100413.41
2018-07-28T09:03:54.589Z,100419.11
2018-07-28T09:06:21.569Z,100410.52
2018-07-28T09:08:48.305Z,100408.42
2018-07-28T09:11:15.264Z,100395.73
2018-07-28T09:13:42.474Z,100399.20
2018-07-28T09:16:09.360Z,100401.09
2018-07-28T09:18:36.136Z,100396.54
2018-07-28T09:21:02.920Z,100399.24
2018-07-28T09:23:29.753Z,100387.56
2018-07-28T09:25:56.412Z,100384.60
2018-07-28T09:28:23.165Z,100372.70
2018-07-28T09:30:49.997Z,100370.86
2018-07-28T09:33:16.741Z,100368.17
2018-07-28T09:35:43.452Z,100374.41
2018-07-28T09:38:10.197Z,100370.30
2018-07-28T09:40:36.956Z,100358.36
2018-07-28T09:43:03.864Z,100369.13
2018-07-28T09:45:30.657Z,100356.19
2018-07-28T09:47:57.397Z,100359.45
2018-07-28T09:50:24.148Z,100361.09
2018-07-28T09:52:50.936Z,100353.59
2018-07-28T09:55:17.666Z,100350.62
2018-07-28T09:57:44.524Z,100353.58
2018-07-28T10:00:14.376Z,100346.29
2018-07-28T10:02:41.145Z,100357.13
2018-07-28T10:05:07.948Z,100347.12
2018-07-28T10:07:34.714Z,100345.20
2018-07-28T10:10:01.434Z,100328.94
2018-07-28T10:12:28.161Z,100333.50
2018-07-28T10:14:55.317Z,100336.41
2018-07-28T10:17:22.316Z,100335.03
2018-07-28T10:22:40.624Z,100335.89
2018-07-28T10:25:07.357Z,100332.83
2018-07-28T10:27:34.323Z,100332.20
2018-07-28T10:30:01.273Z,100334.11
2018-07-28T10:32:28.034Z,100329.78
2018-07-28T10:34:54.754Z,100321.08
2018-07-28T10:37:21.517Z,100324.64
2018-07-28T10:39:48.253Z,100322.05
2018-07-28T10:42:15.020Z,100324.75
2018-07-28T10:44:41.786Z,100315.78
2018-07-28T10:47:08.520Z,100319.81
2018-07-28T10:49:35.246Z,100314.63
2018-07-28T10:52:01.992Z,100315.13
2018-07-28T10:54:28.720Z,100312.64
2018-07-28T10:56:55.473Z,100311.80
2018-07-28T10:59:22.214Z,100311.22
2018-07-28T11:01:48.972Z,100300.81
2018-07-28T11:04:15.723Z,100294.73
2018-07-28T11:09:32.469Z,100294.77
2018-07-28T11:11:59.228Z,100290.13
2018-07-28T11:14:25.984Z,100292.30
2018-07-28T11:16:52.713Z,100301.16
2018-07-28T11:19:19.462Z,100299.64
2018-07-28T11:21:46.193Z,100284.84
2018-07-28T11:24:13.273Z,100291.14
2018-07-28T11:26:39.992Z,100294.28
2018-07-28T11:29:06.738Z,100292.92
2018-07-28T11:31:45.317Z,100295.19
2018-07-28T11:34:23.575Z,100288.55
2018-07-28T11:37:01.905Z,100281.24
2018-07-28T11:39:40.417Z,100274.22
2018-07-28T11:42:18.869Z,100261.46
2018-07-28T11:45:22.664Z,100260.62
2018-07-28T11:47:49.425Z,100252.34
2018-07-28T11:50:16.157Z,100255.81
2018-07-28T11:52:42.902Z,100250.11
2018-07-28T11:55:09.829Z,100239.52
2018-07-28T11:57:36.588Z,100238.13
2018-07-28T12:00:04.569Z,100236.30
2018-07-28T12:02:31.301Z,100228.89
2018-07-28T12:04:58.018Z,100217.52
2018-07-28T12:07:24.757Z,100211.01
2018-07-28T12:09:51.504Z,100217.48
2018-07-28T12:12:18.303Z,100211.20
2018-07-28T12:14:45.072Z,100199.36
2018-07-28T12:17:11.805Z,100201.53
2018-07-28T12:19:38.881Z,100204.16
2018-07-28T12:22:05.833Z,100204.55
2018-07-28T12:24:32.558Z,100194.87
2018-07-28T12:26:59.308Z,100196.94
2018-07-28T12:29:26.065Z,100193.63
2018-07-28T12:31:52.824Z,100191.86
2018-07-28T12:34:19.764Z,100190.77
2018-07-28T12:36:46.489Z,100181.12
2018-07-28T12:39:13.385Z,100178.77
2018-07-28T12:41:40.127Z,100162.30
2018-07-28T12:44:07.004Z,100168.95
2018-07-28T12:46:33.744Z,100161.24
2018-07-28T12:49:00.969Z,100168.34
2018-07-28T12:51:28.065Z,100165.31
2018-07-28T12:53:54.800Z,100156.89
2018-07-28T12:56:21.629Z,100159.41
2018-07-28T12:58:48.384Z,100160.84
2018-07-28T13:01:15.109Z,100160.06
2018-07-28T13:03:41.840Z,100163.45
2018-07-28T13:06:08.565Z,100177.95
2018-07-28T13:08:35.396Z,100187.76
2018-07-28T13:11:02.152Z,100193.21
2018-07-28T13:13:28.905Z,100187.57
2018-07-28T13:15:55.688Z,100185.70
2018-07-28T13:18:22.468Z,100187.05
2018-07-28T13:20:49.208Z,100185.02
2018-07-28T13:23:15.976Z,100195.41
2018-07-28T13:25:42.729Z,100257.08
2018-07-28T13:28:09.460Z,100318.54
2018-07-28T13:30:36.212Z,100354.32
2018-07-28T13:33:02.956Z,100412.83
2018-07-28T13:35:29.842Z,100410.52
2018-07-28T13:37:56.469Z,100423.73
2018-07-28T13:40:23.198Z,100446.06
2018-07-28T13:42:49.944Z,100467.56
2018-07-28T13:45:16.664Z,100489.23
2018-07-28T13:47:43.479Z,100487.03
2018-07-28T13:50:10.208Z,100496.53
2018-07-28T13:52:37.088Z,100470.70
2018-07-28T13:55:03.834Z,100452.13
2018-07-28T13:57:30.553Z,100438.92
2018-07-28T13:59:57.297Z,100421.59
2018-07-28T14:02:24.025Z,100403.08
2018-07-28T14:04:50.861Z,100423.16
2018-07-28T14:07:17.906Z,100443.72
2018-07-28T14:09:44.737Z,100448.50
2018-07-28T14:12:11.630Z,100440.98
2018-07-28T14:14:38.389Z,100436.32
2018-07-28T14:17:05.201Z,100450.87
2018-07-28T14:19:32.149Z,100465.55
2018-07-28T14:21:58.948Z,100468.05
2018-07-28T14:24:25.857Z,100472.72
2018-07-28T14:26:52.671Z,100478.19
2018-07-28T14:29:19.696Z,100485.79
2018-07-28T14:31:46.525Z,100485.89
2018-07-28T14:34:13.269Z,100498.30
2018-07-28T14:36:56.804Z,100505.23
2018-07-28T14:39:23.593Z,100493.48
2018-07-28T14:41:50.340Z,100478.07
2018-07-28T14:44:17.154Z,100474.60
2018-07-28T14:46:43.965Z,100478.48
2018-07-28T14:49:10.713Z,100467.22
2018-07-28T14:51:37.441Z,100456.52
2018-07-28T14:54:04.197Z,100441.44
2018-07-28T14:56:30.944Z,100434.68
2018-07-28T14:58:57.736Z,100428.23
2018-07-28T15:01:24.581Z,100424.97
2018-07-28T15:03:51.242Z,100426.69
2018-07-28T15:06:18.500Z,100411.99
2018-07-28T15:08:45.216Z,100424.86
2018-07-28T15:11:11.955Z,100431.41
2018-07-28T15:13:38.725Z,100436.14
2018-07-28T15:16:05.713Z,100433.27
2018-07-28T15:18:32.464Z,100442.34
2018-07-28T15:20:59.201Z,100446.21
2018-07-28T15:23:26.044Z,100447.03
2018-07-28T15:25:52.800Z,100451.25
2018-07-28T15:28:19.539Z,100451.30
2018-07-28T15:30:46.276Z,100450.64
2018-07-28T15:33:13.031Z,100441.80
2018-07-28T15:35:39.765Z,100444.75
2018-07-28T15:38:06.543Z,100445.14
2018-07-28T15:40:33.591Z,100445.14
2018-07-28T15:43:00.340Z,100459.31
2018-07-28T15:45:27.268Z,100466.83
2018-07-28T15:47:54.204Z,100467.06
2018-07-28T15:50:20.957Z,100465.88
2018-07-28T15:52:47.690Z,100471.87
2018-07-28T15:55:14.528Z,100475.37
2018-07-28T15:57:41.527Z,100475.67
2018-07-28T16:00:08.301Z,100468.99
2018-07-28T16:02:35.088Z,100468.68
2018-07-28T16:05:01.860Z,100475.29
2018-07-28T16:07:28.647Z,100480.36
2018-07-28T16:09:55.425Z,100486.38
2018-07-28T16:12:22.155Z,100492.31
2018-07-28T16:14:48.920Z,100499.16
2018-07-28T16:17:15.680Z,100504.07
2018-07-28T16:19:42.419Z,100514.45
2018-07-28T16:22:09.209Z,100519.27
2018-07-28T16:24:35.952Z,100516.59
2018-07-28T16:27:02.709Z,100515.47
2018-07-28T16:29:29.465Z,100528.02
2018-07-28T16:31:58.796Z,100530.61
2018-07-28T16:34:25.534Z,100530.35
2018-07-28T16:36:52.264Z,100530.52
2018-07-28T16:39:19.005Z,100528.78
2018-07-28T16:41:45.735Z,100534.36
2018-07-28T16:44:12.527Z,100540.14
2018-07-28T16:46:39.269Z,100536.20
2018-07-28T16:49:06.796Z,100533.45
2018-07-28T16:51:33.517Z,100533.04
2018-07-28T16:54:00.345Z,100529.14
2018-07-28T16:56:27.073Z,100532.56
2018-07-28T16:58:54.064Z,100533.96
2018-07-28T17:01:20.733Z,100542.26
2018-07-28T17:03:47.500Z,100547.41
2018-07-28T17:06:14.258Z,100543.97
2018-07-28T17:08:41.056Z,100562.39
2018-07-28T17:11:07.933Z,100566.05
2018-07-28T17:13:34.724Z,100567.25
2018-07-28T17:16:01.728Z,100575.41
2018-07-28T17:18:28.607Z,100580.35
2018-07-28T17:20:56.109Z,100571.48
2018-07-28T17:23:23.038Z,100571.22
2018-07-28T17:25:49.780Z,100584.83
2018-07-28T17:28:16.530Z,100597.11
2018-07-28T17:30:43.298Z,100590.57
2018-07-28T17:33:10.189Z,100595.77
2018-07-28T17:35:37.040Z,100596.44
2018-07-28T17:38:03.839Z,100597.31
2018-07-28T17:43:21.620Z,100611.83
2018-07-28T17:45:48.425Z,100606.31
2018-07-28T17:48:15.757Z,100609.57
2018-07-28T17:50:42.627Z,100619.28
2018-07-28T17:53:09.469Z,100634.05
2018-07-28T17:55:36.339Z,100638.77
2018-07-28T17:58:03.143Z,100640.94
2018-07-28T18:00:29.878Z,100653.45
2018-07-28T18:14:30.350Z,100732.48
2018-07-28T18:16:57.437Z,100767.02
2018-07-28T18:19:24.513Z,100788.33
2018-07-28T18:21:51.525Z,100785.05
2018-07-28T18:24:18.496Z,100764.72
2018-07-28T18:26:45.549Z,100744.40
2018-07-28T18:29:12.549Z,100740.11
2018-07-28T18:31:39.601Z,100738.06
2018-07-28T18:34:06.903Z,100731.17
2018-07-28T18:36:33.914Z,100719.56
2018-07-28T18:39:01.389Z,100714.03
2018-07-28T18:41:28.484Z,100713.33
2018-07-28T18:43:55.549Z,100706.98
2018-07-28T18:46:22.629Z,100702.66
2018-07-28T18:48:49.633Z,100689.83
2018-07-28T18:51:16.695Z,100680.92
2018-07-28T18:53:43.693Z,100665.61
2018-07-28T18:56:10.669Z,100662.33
2018-07-28T18:58:37.648Z,100696.90
2018-07-28T19:01:04.776Z,100694.36
2018-07-28T19:03:31.810Z,100688.52
2018-07-28T19:05:58.781Z,100686.45
2018-07-28T19:08:25.785Z,100697.73
2018-07-28T19:10:53.429Z,100707.30
2018-07-28T19:13:26.438Z,100716.64
2018-07-28T19:15:53.496Z,100731.00
2018-07-28T19:18:26.230Z,100729.89
2018-07-28T19:20:53.517Z,100726.71
2018-07-28T19:23:26.185Z,100721.88
2018-07-28T19:25:53.149Z,100720.41
2018-07-28T19:28:25.925Z,100726.58
2018-07-28T19:30:52.905Z,100729.98
2018-07-28T19:33:19.925Z,100733.88
2018-07-28T19:35:52.549Z,100741.56
2018-07-28T19:38:19.589Z,100754.70
2018-07-28T19:40:46.538Z,100770.52
2018-07-28T19:43:13.551Z,100776.69
2018-07-28T19:45:40.741Z,100787.55
2018-07-28T19:48:08.037Z,100803.34
2018-07-28T19:50:35.189Z,100813.19
2018-07-28T19:53:02.709Z,100816.25
2018-07-28T19:55:29.694Z,100816.54
2018-07-28T19:57:56.709Z,100826.09
2018-07-28T20:00:23.682Z,100829.77
2018-07-28T20:02:50.714Z,100826.27
2018-07-28T20:05:17.763Z,100829.15
2018-07-28T20:07:44.808Z,100807.49
2018-07-28T20:10:11.848Z,100800.21
2018-07-28T20:12:39.012Z,100808.42
2018-07-28T20:15:05.973Z,100831.48
2018-07-28T20:17:32.921Z,100841.03
2018-07-28T20:20:00.153Z,100843.98
2018-07-28T20:22:27.117Z,100838.66
2018-07-28T20:24:54.241Z,100834.55
2018-07-28T20:27:21.185Z,100842.94
2018-07-28T20:29:48.176Z,100845.81
2018-07-28T20:32:15.142Z,100848.16
2018-07-28T20:34:42.287Z,100858.20
2018-07-28T20:37:09.314Z,100851.90
2018-07-28T20:39:36.537Z,100857.33
2018-07-28T20:42:03.937Z,100864.09
2018-07-28T20:44:30.979Z,100871.44
2018-07-28T20:46:58.016Z,100868.98
2018-07-28T20:49:24.993Z,100876.15
2018-07-28T20:51:52.009Z,100881.58
2018-07-28T20:54:19.183Z,100883.51
2018-07-28T20:56:46.270Z,100887.89
2018-07-28T20:59:13.456Z,100889.31
2018-07-28T21:01:40.421Z,100885.82
2018-07-28T21:04:07.392Z,100876.26
2018-07-28T21:06:34.383Z,100885.88
2018-07-28T21:09:01.342Z,100903.52
2018-07-28T21:11:28.329Z,100906.52
2018-07-28T21:13:55.377Z,100915.63
2018-07-28T21:16:22.670Z,100915.84
2018-07-28T21:18:49.685Z,100927.51
2018-07-28T21:21:16.778Z,100927.89
2018-07-28T21:23:43.765Z,100931.77
2018-07-28T21:26:10.749Z,100923.86
2018-07-28T21:28:37.774Z,100921.58
2018-07-28T21:31:04.944Z,100931.79
2018-07-28T21:33:32.086Z,100930.88
2018-07-28T21:35:59.117Z,100950.31
2018-07-28T21:38:26.077Z,100953.19
2018-07-28T21:40:53.115Z,100953.27
2018-07-28T21:43:20.121Z,100951.81
2018-07-28T21:45:47.125Z,100949.53
2018-07-28T21:48:14.121Z,100953.40
2018-07-28T21:50:41.153Z,100951.73
2018-07-28T21:53:08.162Z,100954.61
2018-07-28T21:55:35.355Z,100953.78
2018-07-28T21:58:02.473Z,100955.98
2018-07-28T22:00:34.069Z,100962.02
2018-07-28T22:03:01.058Z,100973.08
2018-07-28T22:05:28.462Z,100969.25
2018-07-28T22:07:55.422Z,100972.63
2018-07-28T22:10:22.418Z,100972.63
2018-07-28T22:12:49.404Z,100966.80
2018-07-28T22:15:16.473Z,100971.13
2018-07-28T22:17:50.326Z,100970.30
2018-07-28T22:20:17.398Z,100979.33
2018-07-28T22:22:44.369Z,100988.31
2018-07-28T22:25:11.333Z,100997.05
2018-07-28T22:27:38.361Z,101005.23
2018-07-28T22:30:05.902Z,101014.22
2018-07-28T22:32:32.905Z,101024.44
2018-07-28T22:34:59.881Z,101032.42
2018-07-28T22:37:27.014Z,101042.88
2018-07-28T22:39:53.973Z,101041.61
2018-07-28T22:42:31.213Z,101046.37
2018-07-28T22:44:58.375Z,101048.06
2018-07-28T22:47:25.357Z,101049.73
2018-07-28T22:49:52.333Z,101046.73
2018-07-28T22:52:19.557Z,101055.75
2018-07-28T22:54:46.529Z,101054.46
2018-07-28T22:57:13.509Z,101054.53
2018-07-28T22:59:40.477Z,101054.06
2018-07-28T23:02:07.461Z,101055.09
2018-07-28T23:04:34.472Z,101055.13
2018-07-28T23:07:01.616Z,101052.33
2018-07-28T23:09:28.601Z,101042.09
2018-07-28T23:11:55.618Z,101039.95
2018-07-28T23:14:22.644Z,101032.51
2018-07-28T23:16:50.061Z,101032.38
2018-07-28T23:19:17.045Z,101043.87
2018-07-28T23:21:44.053Z,101040.59
2018-07-28T23:24:11.025Z,101044.24
2018-07-28T23:26:38.046Z,101043.28
2018-07-28T23:29:05.045Z,101035.30
2018-07-28T23:31:32.013Z,101031.70
2018-07-28T23:33:59.148Z,101036.69
2018-07-28T23:36:26.157Z,101035.55
2018-07-28T23:38:53.145Z,101026.11
2018-07-28T23:41:20.133Z,101028.44
2018-07-28T23:43:47.110Z,101025.14
2018-07-28T23:46:14.125Z,101034.31
2018-07-28T23:48:41.129Z,101035.18
2018-07-28T23:51:08.117Z,101047.01
2018-07-28T23:53:35.109Z,101041.75
2018-07-28T23:56:02.145Z,101047.39
2018-07-28T23:58:29.147Z,101047.45
